Time,TemperatureF,DewpointF,PressureIn,WindDirection,WindDirectionDegrees,WindSpeedMPH,WindSpeedGustMPH,Humidity,HourlyPrecipIn,Conditions,Clouds,dailyrainin,SolarRadiationWatts/m^2,SoftwareType,DateUTC
2013-10-04 06:51:00,34.9,30.0,30.50,East,79,6.0,7.0,83,0.00,,,0.00,79,weatherlink.com 1.10,2013-10-04 12:51:00,
2013-10-04 07:06:00,34.2,31.0,30.50,SE,133,8.0,9.0,88,0.00,,,0.00,76,weatherlink.com 1.10,2013-10-04 13:06:00,
2013-10-04 07:21:00,34.5,31.0,30.50,ESE,105,7.0,8.0,86,0.00,,,0.00,49,weatherlink.com 1.10,2013-10-04 13:21:00,
2013-10-04 07:36:00,34.6,31.0,30.52,ESE,103,5.0,7.0,85,0.00,,,0.00,44,weatherlink.com 1.10,2013-10-04 13:36:00,
2013-10-04 07:51:00,34.8,30.0,30.51,ESE,108,6.0,6.0,84,0.00,,,0.00,37,weatherlink.com 1.10,2013-10-04 13:51:00,
2013-10-04 08:06:00,34.6,30.0,30.52,SSE,156,5.0,7.0,84,0.00,,,0.00,0,weatherlink.com 1.10,2013-10-04 14:06:00,
2013-10-04 08:21:00,34.7,30.0,30.52,SSW,199,4.0,6.0,83,0.00,,,0.00,0,weatherlink.com 1.10,2013-10-04 14:21:00,
2013-10-04 08:36:00,34.7,29.0,30.52,SW,235,5.0,6.0,79,0.00,,,0.00,0,weatherlink.com 1.10,2013-10-04 14:36:00,
2013-10-04 08:51:00,34.7,28.0,30.52,WSW,239,2.0,6.0,77,0.00,,,0.00,0,weatherlink.com 1.10,2013-10-04 14:51:00,
2013-10-04 09:06:00,34.8,28.0,30.52,WSW,241,4.0,6.0,77,0.00,,,0.00,0,weatherlink.com 1.10,2013-10-04 15:06:00,
2013-10-04 09:21:00,34.9,28.0,30.52,West,275,6.0,7.0,76,0.00,,,0.00,0,weatherlink.com 1.10,2013-10-04 15:21:00,
2013-10-04 09:36:00,34.9,28.0,30.53,WSW,258,6.0,8.0,76,0.00,,,0.00,0,weatherlink.com 1.10,2013-10-04 15:36:00,
2013-10-04 09:51:00,35.1,28.0,30.53,WSW,258,4.0,7.0,75,0.00,,,0.00,0,weatherlink.com 1.10,2013-10-04 15:51:00,
2013-10-04 10:06:00,35.3,28.0,30.53,West,262,6.0,10.0,75,0.00,,,0.00,0,weatherlink.com 1.10,2013-10-04 16:06:00,
2013-10-04 10:21:00,35.5,28.0,30.54,West,275,7.0,10.0,74,0.00,,,0.00,0,weatherlink.com 1.10,2013-10-04 16:21:00,
2013-10-04 10:36:00,35.8,29.0,30.54,West,270,4.0,8.0,75,0.00,,,0.00,0,weatherlink.com 1.10,2013-10-04 16:36:00,
2013-10-04 10:51:00,36.5,28.0,30.54,West,275,6.0,9.0,71,0.00,,,0.00,0,weatherlink.com 1.10,2013-10-04 16:51:00,
2013-10-04 11:06:00,36.7,27.0,30.54,West,265,3.0,8.0,68,0.00,,,0.00,0,weatherlink.com 1.10,2013-10-04 17:06:00,
2013-10-04 11:15:00,-999.0,-99.9,0.00,North,-999,-999.0,-999.0,-999,0.00,,,0.00,,weatherlink.com 1.10,2013-10-04 17:15:00,
2013-10-04 11:28:00,-999.0,-99.9,30.53,North,-999,-999.0,-999.0,-999,0.00,,,0.00,,weatherlink.com 1.10,2013-10-04 17:28:00,
2013-10-04 12:13:00,39.1,26.0,30.53,NNW,335,4.0,7.0,60,0.00,,,0.00,0,weatherlink.com 1.10,2013-10-04 18:13:00,
2013-10-04 12:28:00,38.4,25.0,30.53,NE,41,0.0,5.0,60,0.00,,,0.00,0,weatherlink.com 1.10,2013-10-04 18:28:00,
2013-10-04 12:43:00,38.5,26.0,30.54,ENE,76,5.0,8.0,61,0.00,,,0.00,0,weatherlink.com 1.10,2013-10-04 18:43:00,
2013-10-04 12:58:00,38.8,25.0,30.53,ENE,76,3.0,6.0,59,0.00,,,0.00,0,weatherlink.com 1.10,2013-10-04 18:58:00,
2013-10-04 13:13:00,39.2,26.0,30.53,ENE,76,3.0,5.0,59,0.00,,,0.00,0,weatherlink.com 1.10,2013-10-04 19:13:00,
2013-10-04 13:28:00,39.7,25.0,30.52,ENE,76,1.0,3.0,57,0.00,,,0.00,0,weatherlink.com 1.10,2013-10-04 19:28:00,
2013-10-04 13:43:00,39.6,25.0,30.51,ENE,76,1.0,5.0,56,0.00,,,0.00,0,weatherlink.com 1.10,2013-10-04 19:43:00,
2013-10-04 13:58:00,41.0,25.0,30.50,ENE,76,1.0,1.0,54,0.00,,,0.00,0,weatherlink.com 1.10,2013-10-04 19:58:00,
2013-10-04 14:13:00,41.9,27.0,30.49,ENE,76,3.0,3.0,56,0.00,,,0.00,0,weatherlink.com 1.10,2013-10-04 20:13:00,
2013-10-04 14:28:00,41.2,27.0,30.50,SW,222,1.0,5.0,57,0.00,,,0.00,0,weatherlink.com 1.10,2013-10-04 20:28:00,
2013-10-04 14:43:00,41.4,28.0,30.49,ESE,112,7.0,8.0,59,0.00,,,0.00,0,weatherlink.com 1.10,2013-10-04 20:43:00,
2013-10-04 14:58:00,41.7,27.0,30.49,ESE,113,2.0,6.0,56,0.00,,,0.00,0,weatherlink.com 1.10,2013-10-04 20:58:00,
2013-10-04 15:13:00,42.9,27.0,30.49,ESE,113,1.0,3.0,54,0.00,,,0.00,0,weatherlink.com 1.10,2013-10-04 21:13:00,
2013-10-04 15:28:00,43.6,27.0,30.49,ESE,113,0.0,2.0,53,0.00,,,0.00,0,weatherlink.com 1.10,2013-10-04 21:28:00,
2013-10-04 15:43:00,43.8,28.0,30.49,ESE,113,2.0,3.0,54,0.00,,,0.00,0,weatherlink.com 1.10,2013-10-04 21:43:00,
2013-10-04 15:58:00,44.6,26.0,30.49,WSW,247,3.0,4.0,49,0.00,,,0.00,0,weatherlink.com 1.10,2013-10-04 21:58:00,
2013-10-04 16:13:00,45.0,26.0,30.49,West,259,2.0,6.0,48,0.00,,,0.00,0,weatherlink.com 1.10,2013-10-04 22:13:00,
2013-10-04 16:28:00,45.2,27.0,30.48,WNW,295,0.0,5.0,49,0.00,,,0.00,0,weatherlink.com 1.10,2013-10-04 22:28:00,
2013-10-04 16:43:00,45.7,27.0,30.48,WNW,295,4.0,4.0,49,0.00,,,0.00,0,weatherlink.com 1.10,2013-10-04 22:43:00,
2013-10-04 16:58:00,46.3,29.0,30.47,West,275,6.0,8.0,51,0.00,,,0.00,0,weatherlink.com 1.10,2013-10-04 22:58:00,
2013-10-04 17:13:00,46.6,29.0,30.47,WNW,291,5.0,8.0,50,0.00,,,0.00,0,weatherlink.com 1.10,2013-10-04 23:13:00,
2013-10-04 17:28:00,46.8,29.0,30.46,WNW,289,4.0,6.0,51,0.00,,,0.00,0,weatherlink.com 1.10,2013-10-04 23:28:00,
2013-10-04 17:43:00,46.9,29.0,30.46,West,280,4.0,7.0,50,0.00,,,0.00,0,weatherlink.com 1.10,2013-10-04 23:43:00,
2013-10-04 17:58:00,46.9,30.0,30.46,West,280,3.0,6.0,52,0.00,,,0.00,0,weatherlink.com 1.10,2013-10-04 23:58:00,
2013-10-04 18:13:00,47.0,29.0,30.46,West,280,3.0,4.0,50,0.00,,,0.00,0,weatherlink.com 1.10,2013-10-05 00:13:00,
2013-10-04 18:28:00,46.4,28.0,30.45,West,280,2.0,3.0,49,0.00,,,0.00,0,weatherlink.com 1.10,2013-10-05 00:28:00,
2013-10-04 18:44:00,47.4,29.0,30.45,West,280,0.0,1.0,50,0.00,,,0.00,0,weatherlink.com 1.10,2013-10-05 00:44:00,
2013-10-04 18:59:00,47.6,30.0,30.44,West,280,0.0,1.0,50,0.00,,,0.00,37,weatherlink.com 1.10,2013-10-05 00:59:00,
2013-10-04 19:14:00,46.8,29.0,30.44,West,280,0.0,1.0,50,0.00,,,0.00,39,weatherlink.com 1.10,2013-10-05 01:14:00,
2013-10-04 19:29:00,45.1,29.0,30.43,NNE,14,7.0,8.0,54,0.00,,,0.00,83,weatherlink.com 1.10,2013-10-05 01:29:00,
2013-10-04 19:44:00,43.3,32.0,30.44,NE,50,7.0,9.0,65,0.00,,,0.00,74,weatherlink.com 1.10,2013-10-05 01:44:00,
2013-10-04 19:59:00,41.4,31.0,30.44,East,81,4.0,9.0,67,0.00,,,0.00,70,weatherlink.com 1.10,2013-10-05 01:59:00,
2013-10-04 20:14:00,40.5,31.0,30.44,East,81,5.0,6.0,70,0.00,,,0.00,28,weatherlink.com 1.10,2013-10-05 02:14:00,
2013-10-04 20:29:00,39.8,31.0,30.45,East,82,3.0,7.0,72,0.00,,,0.00,26,weatherlink.com 1.10,2013-10-05 02:29:00,
2013-10-04 20:44:00,39.5,33.0,30.45,East,82,3.0,6.0,78,0.00,,,0.00,63,weatherlink.com 1.10,2013-10-05 02:44:00,
2013-10-04 20:59:00,38.8,33.0,30.45,East,81,4.0,7.0,78,0.00,,,0.00,60,weatherlink.com 1.10,2013-10-05 02:59:00,
2013-10-04 21:14:00,38.2,32.0,30.45,ENE,70,7.0,9.0,78,0.00,,,0.00,23,weatherlink.com 1.10,2013-10-05 03:14:00,
2013-10-04 21:29:00,38.5,33.0,30.45,East,94,8.0,9.0,81,0.00,,,0.00,25,weatherlink.com 1.10,2013-10-05 03:29:00,
2013-10-04 21:44:00,36.8,32.0,30.44,East,80,9.0,14.0,84,0.00,,,0.00,21,weatherlink.com 1.10,2013-10-05 03:44:00,
2013-10-04 21:59:00,35.9,32.0,30.44,East,101,13.0,13.0,85,0.00,,,0.00,19,weatherlink.com 1.10,2013-10-05 03:59:00,
2013-10-04 22:29:00,36.3,32.0,30.44,ENE,77,11.0,13.0,85,0.00,,,0.00,81,weatherlink.com 1.10,2013-10-05 04:29:00,
2013-10-04 22:44:00,37.3,32.0,30.44,NE,56,8.0,11.0,81,0.00,,,0.00,56,weatherlink.com 1.10,2013-10-05 04:44:00,
2013-10-04 22:59:00,37.5,32.0,30.45,ENE,59,10.0,12.0,79,0.00,,,0.00,56,weatherlink.com 1.10,2013-10-05 04:59:00,
2013-10-04 23:14:00,37.5,30.0,30.45,NE,56,12.0,14.0,75,0.00,,,0.00,23,weatherlink.com 1.10,2013-10-05 05:14:00,
2013-10-04 23:29:00,38.1,31.0,30.44,ESE,113,9.0,11.0,76,0.00,,,0.00,58,weatherlink.com 1.10,2013-10-05 05:29:00,
2013-10-04 23:44:00,37.9,31.0,30.44,East,92,9.0,12.0,75,0.00,,,0.00,60,weatherlink.com 1.10,2013-10-05 05:44:00,
2013-10-04 23:59:00,37.8,31.0,30.44,East,95,8.0,11.0,77,0.00,,,0.00,60,weatherlink.com 1.10,2013-10-05 05:59:00,